sensor_id;sensor_type;location;lat;lon;timestamp;P1;durP1;ratioP1;P2;durP2;ratioP2
72728;SDS011;60843;52.062;4.508;2022-08-19T00:01:55;10.73;;;4.40;;
72728;SDS011;60843;52.062;4.508;2022-08-19T00:04:22;8.05;;;5.32;;
72728;SDS011;60843;52.062;4.508;2022-08-19T00:06:50;7.25;;;4.40;;
72728;SDS011;60843;52.062;4.508;2022-08-19T00:09:16;6.82;;;4.32;;
72728;SDS011;60843;52.062;4.508;2022-08-19T00:11:44;8.65;;;4.30;;
72728;SDS011;60843;52.062;4.508;2022-08-19T00:14:13;10.02;;;5.15;;
72728;SDS011;60843;52.062;4.508;2022-08-19T00:16:40;8.80;;;4.32;;
72728;SDS011;60843;52.062;4.508;2022-08-19T00:19:08;7.63;;;4.47;;
72728;SDS011;60843;52.062;4.508;2022-08-19T00:21:33;8.73;;;4.70;;
72728;SDS011;60843;52.062;4.508;2022-08-19T00:24:03;8.25;;;3.97;;
72728;SDS011;60843;52.062;4.508;2022-08-19T00:26:29;9.18;;;5.00;;
72728;SDS011;60843;52.062;4.508;2022-08-19T00:28:54;6.93;;;4.32;;
72728;SDS011;60843;52.062;4.508;2022-08-19T00:31:20;10.20;;;5.15;;
72728;SDS011;60843;52.062;4.508;2022-08-19T00:33:46;8.20;;;5.05;;
72728;SDS011;60843;52.062;4.508;2022-08-19T00:36:14;9.63;;;5.32;;
72728;SDS011;60843;52.062;4.508;2022-08-19T00:38:41;9.90;;;5.03;;
72728;SDS011;60843;52.062;4.508;2022-08-19T00:41:08;10.10;;;5.22;;
72728;SDS011;60843;52.062;4.508;2022-08-19T00:43:41;8.00;;;5.07;;
72728;SDS011;60843;52.062;4.508;2022-08-19T00:46:07;10.65;;;5.10;;
72728;SDS011;60843;52.062;4.508;2022-08-19T00:48:32;11.30;;;5.50;;
72728;SDS011;60843;52.062;4.508;2022-08-19T00:50:59;11.73;;;5.78;;
72728;SDS011;60843;52.062;4.508;2022-08-19T00:53:26;12.77;;;6.30;;
72728;SDS011;60843;52.062;4.508;2022-08-19T00:55:53;13.13;;;7.40;;
72728;SDS011;60843;52.062;4.508;2022-08-19T00:58:21;11.63;;;6.47;;
72728;SDS011;60843;52.062;4.508;2022-08-19T01:00:48;10.68;;;6.25;;
72728;SDS011;60843;52.062;4.508;2022-08-19T01:03:18;15.10;;;6.50;;
72728;SDS011;60843;52.062;4.508;2022-08-19T01:05:45;9.75;;;6.50;;
72728;SDS011;60843;52.062;4.508;2022-08-19T01:08:13;12.18;;;7.13;;
72728;SDS011;60843;52.062;4.508;2022-08-19T01:10:43;11.15;;;6.07;;
72728;SDS011;60843;52.062;4.508;2022-08-19T01:13:10;16.40;;;7.97;;
72728;SDS011;60843;52.062;4.508;2022-08-19T01:15:40;14.77;;;7.35;;
72728;SDS011;60843;52.062;4.508;2022-08-19T01:18:10;10.43;;;7.63;;
72728;SDS011;60843;52.062;4.508;2022-08-19T01:20:37;14.65;;;7.53;;
72728;SDS011;60843;52.062;4.508;2022-08-19T01:23:03;13.68;;;7.18;;
72728;SDS011;60843;52.062;4.508;2022-08-19T01:25:50;13.77;;;7.63;;
72728;SDS011;60843;52.062;4.508;2022-08-19T01:28:19;12.18;;;7.20;;
72728;SDS011;60843;52.062;4.508;2022-08-19T01:30:47;18.13;;;7.70;;
72728;SDS011;60843;52.062;4.508;2022-08-19T01:33:13;15.13;;;7.90;;
72728;SDS011;60843;52.062;4.508;2022-08-19T01:35:39;14.98;;;7.65;;
72728;SDS011;60843;52.062;4.508;2022-08-19T01:38:07;14.00;;;8.13;;
72728;SDS011;60843;52.062;4.508;2022-08-19T01:40:36;14.77;;;7.93;;
72728;SDS011;60843;52.062;4.508;2022-08-19T01:43:03;13.93;;;8.15;;
72728;SDS011;60843;52.062;4.508;2022-08-19T01:45:30;18.00;;;8.07;;
72728;SDS011;60843;52.062;4.508;2022-08-19T01:47:57;17.67;;;8.52;;
72728;SDS011;60843;52.062;4.508;2022-08-19T01:50:23;14.85;;;8.68;;
72728;SDS011;60843;52.062;4.508;2022-08-19T01:52:49;16.13;;;8.18;;
72728;SDS011;60843;52.062;4.508;2022-08-19T01:55:16;15.38;;;8.32;;
72728;SDS011;60843;52.062;4.508;2022-08-19T01:57:44;15.80;;;8.25;;
72728;SDS011;60843;52.062;4.508;2022-08-19T02:00:14;15.55;;;7.95;;
72728;SDS011;60843;52.062;4.508;2022-08-19T02:02:41;16.33;;;8.68;;
72728;SDS011;60843;52.062;4.508;2022-08-19T02:05:07;15.85;;;9.20;;
72728;SDS011;60843;52.062;4.508;2022-08-19T02:07:33;16.73;;;8.30;;
72728;SDS011;60843;52.062;4.508;2022-08-19T02:10:01;18.65;;;9.30;;
72728;SDS011;60843;52.062;4.508;2022-08-19T02:12:32;15.02;;;9.65;;
72728;SDS011;60843;52.062;4.508;2022-08-19T02:14:58;15.15;;;10.10;;
72728;SDS011;60843;52.062;4.508;2022-08-19T02:17:24;21.10;;;12.10;;
72728;SDS011;60843;52.062;4.508;2022-08-19T02:19:50;23.25;;;13.10;;
72728;SDS011;60843;52.062;4.508;2022-08-19T02:22:16;26.30;;;13.82;;
72728;SDS011;60843;52.062;4.508;2022-08-19T02:24:41;31.20;;;15.10;;
72728;SDS011;60843;52.062;4.508;2022-08-19T02:27:07;32.97;;;15.45;;
72728;SDS011;60843;52.062;4.508;2022-08-19T02:29:32;26.20;;;14.10;;
72728;SDS011;60843;52.062;4.508;2022-08-19T02:31:57;33.97;;;16.10;;
72728;SDS011;60843;52.062;4.508;2022-08-19T02:34:23;33.60;;;15.87;;
72728;SDS011;60843;52.062;4.508;2022-08-19T02:36:49;35.72;;;16.95;;
72728;SDS011;60843;52.062;4.508;2022-08-19T02:39:15;31.98;;;16.40;;
72728;SDS011;60843;52.062;4.508;2022-08-19T02:41:41;35.65;;;17.25;;
72728;SDS011;60843;52.062;4.508;2022-08-19T02:44:06;32.47;;;16.90;;
72728;SDS011;60843;52.062;4.508;2022-08-19T02:46:32;44.08;;;17.95;;
72728;SDS011;60843;52.062;4.508;2022-08-19T02:49:00;38.85;;;17.65;;
72728;SDS011;60843;52.062;4.508;2022-08-19T02:51:30;40.92;;;18.15;;
72728;SDS011;60843;52.062;4.508;2022-08-19T02:53:57;39.15;;;18.13;;
72728;SDS011;60843;52.062;4.508;2022-08-19T02:56:23;40.05;;;18.67;;
72728;SDS011;60843;52.062;4.508;2022-08-19T02:58:52;37.70;;;18.38;;
72728;SDS011;60843;52.062;4.508;2022-08-19T03:03:58;38.78;;;17.67;;
72728;SDS011;60843;52.062;4.508;2022-08-19T03:06:24;35.50;;;17.63;;
72728;SDS011;60843;52.062;4.508;2022-08-19T03:08:50;38.20;;;17.65;;
72728;SDS011;60843;52.062;4.508;2022-08-19T03:13:42;37.20;;;18.27;;
72728;SDS011;60843;52.062;4.508;2022-08-19T03:16:08;36.80;;;17.48;;
72728;SDS011;60843;52.062;4.508;2022-08-19T03:18:33;36.40;;;18.60;;
72728;SDS011;60843;52.062;4.508;2022-08-19T03:20:59;39.53;;;18.17;;
72728;SDS011;60843;52.062;4.508;2022-08-19T03:23:25;36.38;;;17.65;;
72728;SDS011;60843;52.062;4.508;2022-08-19T03:25:51;41.20;;;18.65;;
72728;SDS011;60843;52.062;4.508;2022-08-19T03:28:17;44.22;;;19.65;;
72728;SDS011;60843;52.062;4.508;2022-08-19T03:30:54;39.35;;;17.52;;
72728;SDS011;60843;52.062;4.508;2022-08-19T03:36:03;41.55;;;18.50;;
72728;SDS011;60843;52.062;4.508;2022-08-19T03:38:33;41.47;;;19.23;;
72728;SDS011;60843;52.062;4.508;2022-08-19T03:41:02;43.40;;;19.50;;
72728;SDS011;60843;52.062;4.508;2022-08-19T03:43:31;45.55;;;19.50;;
72728;SDS011;60843;52.062;4.508;2022-08-19T03:46:05;45.42;;;19.08;;
72728;SDS011;60843;52.062;4.508;2022-08-19T03:48:32;41.95;;;18.85;;
72728;SDS011;60843;52.062;4.508;2022-08-19T03:50:59;41.15;;;19.23;;
72728;SDS011;60843;52.062;4.508;2022-08-19T03:53:25;43.38;;;18.83;;
72728;SDS011;60843;52.062;4.508;2022-08-19T03:55:52;44.60;;;19.23;;
72728;SDS011;60843;52.062;4.508;2022-08-19T03:58:18;45.83;;;20.33;;
72728;SDS011;60843;52.062;4.508;2022-08-19T04:00:44;42.53;;;20.48;;
72728;SDS011;60843;52.062;4.508;2022-08-19T04:03:10;40.53;;;18.80;;
72728;SDS011;60843;52.062;4.508;2022-08-19T04:05:35;43.05;;;20.45;;
72728;SDS011;60843;52.062;4.508;2022-08-19T04:08:02;42.40;;;19.25;;
72728;SDS011;60843;52.062;4.508;2022-08-19T04:10:28;48.58;;;20.33;;
72728;SDS011;60843;52.062;4.508;2022-08-19T04:12:54;49.92;;;20.45;;
72728;SDS011;60843;52.062;4.508;2022-08-19T04:15:19;49.83;;;20.95;;
72728;SDS011;60843;52.062;4.508;2022-08-19T04:17:45;54.33;;;21.17;;
72728;SDS011;60843;52.062;4.508;2022-08-19T04:20:11;46.75;;;20.48;;
72728;SDS011;60843;52.062;4.508;2022-08-19T04:22:37;49.15;;;20.23;;
72728;SDS011;60843;52.062;4.508;2022-08-19T04:25:02;54.63;;;21.53;;
72728;SDS011;60843;52.062;4.508;2022-08-19T04:27:28;52.47;;;22.60;;
72728;SDS011;60843;52.062;4.508;2022-08-19T04:29:54;58.15;;;24.60;;
72728;SDS011;60843;52.062;4.508;2022-08-19T04:32:20;67.22;;;25.80;;
72728;SDS011;60843;52.062;4.508;2022-08-19T04:34:45;61.03;;;25.75;;
72728;SDS011;60843;52.062;4.508;2022-08-19T04:37:11;66.40;;;26.23;;
72728;SDS011;60843;52.062;4.508;2022-08-19T04:39:38;68.70;;;26.55;;
72728;SDS011;60843;52.062;4.508;2022-08-19T04:42:22;67.28;;;25.25;;
72728;SDS011;60843;52.062;4.508;2022-08-19T04:45:07;63.42;;;25.65;;
72728;SDS011;60843;52.062;4.508;2022-08-19T04:47:35;57.55;;;23.10;;
72728;SDS011;60843;52.062;4.508;2022-08-19T04:50:02;59.17;;;24.42;;
72728;SDS011;60843;52.062;4.508;2022-08-19T04:52:29;62.88;;;24.90;;
72728;SDS011;60843;52.062;4.508;2022-08-19T04:54:56;65.53;;;24.25;;
72728;SDS011;60843;52.062;4.508;2022-08-19T04:57:22;67.95;;;25.55;;
72728;SDS011;60843;52.062;4.508;2022-08-19T04:59:47;75.90;;;23.77;;
72728;SDS011;60843;52.062;4.508;2022-08-19T05:02:13;61.97;;;23.45;;
72728;SDS011;60843;52.062;4.508;2022-08-19T05:04:38;60.10;;;22.27;;
72728;SDS011;60843;52.062;4.508;2022-08-19T05:07:04;56.92;;;22.98;;
72728;SDS011;60843;52.062;4.508;2022-08-19T05:09:30;70.00;;;25.23;;
72728;SDS011;60843;52.062;4.508;2022-08-19T05:11:56;69.20;;;23.80;;
72728;SDS011;60843;52.062;4.508;2022-08-19T05:14:21;65.70;;;23.33;;
72728;SDS011;60843;52.062;4.508;2022-08-19T05:16:48;60.35;;;23.30;;
72728;SDS011;60843;52.062;4.508;2022-08-19T05:19:13;64.63;;;24.23;;
72728;SDS011;60843;52.062;4.508;2022-08-19T05:21:58;62.90;;;22.25;;
72728;SDS011;60843;52.062;4.508;2022-08-19T05:24:43;60.83;;;23.05;;
72728;SDS011;60843;52.062;4.508;2022-08-19T05:27:08;53.40;;;21.13;;
72728;SDS011;60843;52.062;4.508;2022-08-19T05:29:34;62.10;;;22.98;;
72728;SDS011;60843;52.062;4.508;2022-08-19T05:32:00;62.80;;;22.88;;
72728;SDS011;60843;52.062;4.508;2022-08-19T05:34:27;58.75;;;21.92;;
72728;SDS011;60843;52.062;4.508;2022-08-19T05:36:56;60.85;;;22.90;;
72728;SDS011;60843;52.062;4.508;2022-08-19T05:39:24;63.00;;;22.75;;
72728;SDS011;60843;52.062;4.508;2022-08-19T05:41:53;56.85;;;20.75;;
72728;SDS011;60843;52.062;4.508;2022-08-19T05:44:27;58.15;;;21.35;;
72728;SDS011;60843;52.062;4.508;2022-08-19T05:46:57;62.05;;;21.88;;
72728;SDS011;60843;52.062;4.508;2022-08-19T05:49:25;52.58;;;20.67;;
72728;SDS011;60843;52.062;4.508;2022-08-19T05:51:52;61.22;;;20.65;;
72728;SDS011;60843;52.062;4.508;2022-08-19T05:54:18;55.60;;;20.63;;
72728;SDS011;60843;52.062;4.508;2022-08-19T05:56:44;51.10;;;20.73;;
72728;SDS011;60843;52.062;4.508;2022-08-19T05:59:13;52.70;;;20.60;;
72728;SDS011;60843;52.062;4.508;2022-08-19T06:04:07;56.38;;;20.75;;
72728;SDS011;60843;52.062;4.508;2022-08-19T06:06:35;53.80;;;20.48;;
72728;SDS011;60843;52.062;4.508;2022-08-19T06:09:04;54.03;;;19.90;;
72728;SDS011;60843;52.062;4.508;2022-08-19T06:11:38;46.60;;;19.80;;
72728;SDS011;60843;52.062;4.508;2022-08-19T06:14:12;47.03;;;20.30;;
72728;SDS011;60843;52.062;4.508;2022-08-19T06:16:43;47.28;;;19.48;;
72728;SDS011;60843;52.062;4.508;2022-08-19T06:19:13;50.38;;;20.50;;
72728;SDS011;60843;52.062;4.508;2022-08-19T06:21:41;49.40;;;20.25;;
72728;SDS011;60843;52.062;4.508;2022-08-19T06:24:09;53.05;;;19.65;;
72728;SDS011;60843;52.062;4.508;2022-08-19T06:26:40;42.60;;;19.02;;
72728;SDS011;60843;52.062;4.508;2022-08-19T06:29:08;43.30;;;19.23;;
72728;SDS011;60843;52.062;4.508;2022-08-19T06:31:39;42.15;;;19.73;;
72728;SDS011;60843;52.062;4.508;2022-08-19T06:34:06;44.20;;;19.70;;
72728;SDS011;60843;52.062;4.508;2022-08-19T06:36:33;46.38;;;19.00;;
72728;SDS011;60843;52.062;4.508;2022-08-19T06:39:04;53.47;;;21.10;;
72728;SDS011;60843;52.062;4.508;2022-08-19T06:41:37;47.22;;;18.95;;
72728;SDS011;60843;52.062;4.508;2022-08-19T06:44:03;43.58;;;19.05;;
72728;SDS011;60843;52.062;4.508;2022-08-19T06:46:29;39.17;;;18.02;;
72728;SDS011;60843;52.062;4.508;2022-08-19T06:48:55;40.10;;;19.15;;
72728;SDS011;60843;52.062;4.508;2022-08-19T06:51:21;37.13;;;18.17;;
72728;SDS011;60843;52.062;4.508;2022-08-19T06:53:47;45.65;;;18.15;;
72728;SDS011;60843;52.062;4.508;2022-08-19T06:56:14;40.05;;;17.23;;
72728;SDS011;60843;52.062;4.508;2022-08-19T06:58:43;41.70;;;17.77;;
72728;SDS011;60843;52.062;4.508;2022-08-19T07:01:11;33.17;;;16.55;;
72728;SDS011;60843;52.062;4.508;2022-08-19T07:03:37;37.38;;;16.48;;
72728;SDS011;60843;52.062;4.508;2022-08-19T07:06:08;36.13;;;16.85;;
72728;SDS011;60843;52.062;4.508;2022-08-19T07:08:40;43.55;;;17.85;;
72728;SDS011;60843;52.062;4.508;2022-08-19T07:11:08;36.35;;;16.48;;
72728;SDS011;60843;52.062;4.508;2022-08-19T07:13:34;29.23;;;15.35;;
72728;SDS011;60843;52.062;4.508;2022-08-19T07:16:03;36.83;;;15.88;;
72728;SDS011;60843;52.062;4.508;2022-08-19T07:18:32;32.65;;;15.70;;
72728;SDS011;60843;52.062;4.508;2022-08-19T07:23:34;32.83;;;14.32;;
72728;SDS011;60843;52.062;4.508;2022-08-19T07:26:04;35.35;;;14.88;;
72728;SDS011;60843;52.062;4.508;2022-08-19T07:28:34;28.13;;;13.30;;
72728;SDS011;60843;52.062;4.508;2022-08-19T07:31:01;28.63;;;13.70;;
72728;SDS011;60843;52.062;4.508;2022-08-19T07:33:28;25.95;;;13.00;;
72728;SDS011;60843;52.062;4.508;2022-08-19T07:35:57;30.08;;;13.70;;
72728;SDS011;60843;52.062;4.508;2022-08-19T07:38:33;32.78;;;13.48;;
72728;SDS011;60843;52.062;4.508;2022-08-19T07:40:59;29.75;;;13.07;;
72728;SDS011;60843;52.062;4.508;2022-08-19T07:43:25;33.65;;;13.88;;
72728;SDS011;60843;52.062;4.508;2022-08-19T07:45:54;31.15;;;13.40;;
72728;SDS011;60843;52.062;4.508;2022-08-19T07:48:24;33.60;;;12.93;;
72728;SDS011;60843;52.062;4.508;2022-08-19T07:50:54;30.77;;;12.77;;
72728;SDS011;60843;52.062;4.508;2022-08-19T07:53:21;26.75;;;13.70;;
72728;SDS011;60843;52.062;4.508;2022-08-19T07:55:47;27.15;;;13.07;;
72728;SDS011;60843;52.062;4.508;2022-08-19T07:58:17;26.00;;;13.50;;
72728;SDS011;60843;52.062;4.508;2022-08-19T08:00:52;28.75;;;12.98;;
72728;SDS011;60843;52.062;4.508;2022-08-19T08:03:29;22.92;;;12.75;;
72728;SDS011;60843;52.062;4.508;2022-08-19T08:06:16;24.95;;;12.55;;
72728;SDS011;60843;52.062;4.508;2022-08-19T08:09:31;28.20;;;13.20;;
72728;SDS011;60843;52.062;4.508;2022-08-19T08:15:06;31.17;;;12.40;;
72728;SDS011;60843;52.062;4.508;2022-08-19T08:17:34;21.33;;;11.98;;
72728;SDS011;60843;52.062;4.508;2022-08-19T08:20:02;31.83;;;13.43;;
72728;SDS011;60843;52.062;4.508;2022-08-19T08:22:31;23.27;;;12.50;;
72728;SDS011;60843;52.062;4.508;2022-08-19T08:25:16;28.63;;;10.98;;
72728;SDS011;60843;52.062;4.508;2022-08-19T08:27:44;29.58;;;11.95;;
72728;SDS011;60843;52.062;4.508;2022-08-19T08:30:15;21.35;;;11.65;;
72728;SDS011;60843;52.062;4.508;2022-08-19T08:32:58;25.08;;;11.63;;
72728;SDS011;60843;52.062;4.508;2022-08-19T08:36:06;19.83;;;10.02;;
72728;SDS011;60843;52.062;4.508;2022-08-19T08:38:33;22.10;;;10.98;;
72728;SDS011;60843;52.062;4.508;2022-08-19T08:41:02;19.63;;;10.25;;
72728;SDS011;60843;52.062;4.508;2022-08-19T08:43:39;25.13;;;11.20;;
72728;SDS011;60843;52.062;4.508;2022-08-19T08:46:10;25.05;;;11.15;;
72728;SDS011;60843;52.062;4.508;2022-08-19T08:51:32;25.20;;;11.07;;
72728;SDS011;60843;52.062;4.508;2022-08-19T08:54:01;18.58;;;8.77;;
72728;SDS011;60843;52.062;4.508;2022-08-19T08:56:30;17.92;;;8.50;;
72728;SDS011;60843;52.062;4.508;2022-08-19T09:01:32;14.48;;;6.63;;
72728;SDS011;60843;52.062;4.508;2022-08-19T09:03:58;11.25;;;5.75;;
72728;SDS011;60843;52.062;4.508;2022-08-19T09:09:31;11.43;;;5.57;;
72728;SDS011;60843;52.062;4.508;2022-08-19T09:14:46;10.00;;;4.70;;
72728;SDS011;60843;52.062;4.508;2022-08-19T09:17:15;14.80;;;5.53;;
72728;SDS011;60843;52.062;4.508;2022-08-19T09:19:51;10.25;;;4.57;;
72728;SDS011;60843;52.062;4.508;2022-08-19T09:22:19;11.18;;;4.80;;
72728;SDS011;60843;52.062;4.508;2022-08-19T09:24:47;13.82;;;4.57;;
72728;SDS011;60843;52.062;4.508;2022-08-19T09:27:17;7.35;;;4.32;;
72728;SDS011;60843;52.062;4.508;2022-08-19T09:29:44;10.60;;;4.57;;
72728;SDS011;60843;52.062;4.508;2022-08-19T09:32:10;10.85;;;4.63;;
72728;SDS011;60843;52.062;4.508;2022-08-19T09:34:36;12.15;;;4.75;;
72728;SDS011;60843;52.062;4.508;2022-08-19T09:37:02;14.55;;;4.00;;
72728;SDS011;60843;52.062;4.508;2022-08-19T09:39:28;7.53;;;3.47;;
72728;SDS011;60843;52.062;4.508;2022-08-19T09:44:21;10.23;;;3.63;;
72728;SDS011;60843;52.062;4.508;2022-08-19T09:46:50;11.82;;;3.75;;
72728;SDS011;60843;52.062;4.508;2022-08-19T09:49:17;7.80;;;3.40;;
72728;SDS011;60843;52.062;4.508;2022-08-19T09:51:43;8.05;;;3.60;;
72728;SDS011;60843;52.062;4.508;2022-08-19T09:54:10;7.18;;;3.88;;
72728;SDS011;60843;52.062;4.508;2022-08-19T09:56:36;10.82;;;3.22;;
72728;SDS011;60843;52.062;4.508;2022-08-19T09:59:02;10.85;;;3.75;;
72728;SDS011;60843;52.062;4.508;2022-08-19T10:01:29;6.60;;;3.72;;
72728;SDS011;60843;52.062;4.508;2022-08-19T10:03:57;10.85;;;3.72;;
72728;SDS011;60843;52.062;4.508;2022-08-19T10:06:24;4.72;;;3.30;;
72728;SDS011;60843;52.062;4.508;2022-08-19T10:08:54;6.03;;;3.67;;
72728;SDS011;60843;52.062;4.508;2022-08-19T10:11:20;8.07;;;3.45;;
72728;SDS011;60843;52.062;4.508;2022-08-19T10:13:47;5.25;;;3.03;;
72728;SDS011;60843;52.062;4.508;2022-08-19T10:16:14;10.32;;;3.22;;
72728;SDS011;60843;52.062;4.508;2022-08-19T10:18:44;5.30;;;2.80;;
72728;SDS011;60843;52.062;4.508;2022-08-19T10:21:12;7.75;;;2.90;;
72728;SDS011;60843;52.062;4.508;2022-08-19T10:23:40;7.25;;;3.00;;
72728;SDS011;60843;52.062;4.508;2022-08-19T10:26:11;6.53;;;2.90;;
72728;SDS011;60843;52.062;4.508;2022-08-19T10:28:39;7.95;;;3.60;;
72728;SDS011;60843;52.062;4.508;2022-08-19T10:31:16;6.60;;;3.47;;
72728;SDS011;60843;52.062;4.508;2022-08-19T10:33:46;8.23;;;3.78;;
72728;SDS011;60843;52.062;4.508;2022-08-19T10:36:13;5.53;;;3.30;;
72728;SDS011;60843;52.062;4.508;2022-08-19T10:38:42;8.02;;;3.60;;
72728;SDS011;60843;52.062;4.508;2022-08-19T10:41:14;13.25;;;3.70;;
72728;SDS011;60843;52.062;4.508;2022-08-19T10:43:41;6.45;;;2.60;;
72728;SDS011;60843;52.062;4.508;2022-08-19T10:46:12;4.63;;;2.60;;
72728;SDS011;60843;52.062;4.508;2022-08-19T10:48:39;6.22;;;2.78;;
72728;SDS011;60843;52.062;4.508;2022-08-19T10:51:06;5.88;;;2.67;;
72728;SDS011;60843;52.062;4.508;2022-08-19T10:53:50;4.60;;;2.65;;
72728;SDS011;60843;52.062;4.508;2022-08-19T10:56:16;5.57;;;2.67;;
72728;SDS011;60843;52.062;4.508;2022-08-19T10:59:00;6.55;;;2.92;;
72728;SDS011;60843;52.062;4.508;2022-08-19T11:01:28;7.18;;;2.40;;
72728;SDS011;60843;52.062;4.508;2022-08-19T11:03:55;2.38;;;1.95;;
72728;SDS011;60843;52.062;4.508;2022-08-19T11:06:22;4.18;;;1.92;;
72728;SDS011;60843;52.062;4.508;2022-08-19T11:08:50;5.03;;;2.13;;
72728;SDS011;60843;52.062;4.508;2022-08-19T11:11:16;4.72;;;1.90;;
72728;SDS011;60843;52.062;4.508;2022-08-19T11:13:42;4.05;;;1.77;;
72728;SDS011;60843;52.062;4.508;2022-08-19T11:16:11;3.58;;;1.90;;
72728;SDS011;60843;52.062;4.508;2022-08-19T11:18:40;6.45;;;2.03;;
72728;SDS011;60843;52.062;4.508;2022-08-19T11:21:14;4.97;;;1.77;;
72728;SDS011;60843;52.062;4.508;2022-08-19T11:23:44;3.38;;;1.63;;
72728;SDS011;60843;52.062;4.508;2022-08-19T11:26:14;5.43;;;2.10;;
72728;SDS011;60843;52.062;4.508;2022-08-19T11:28:40;6.53;;;1.50;;
72728;SDS011;60843;52.062;4.508;2022-08-19T11:31:10;4.85;;;1.80;;
72728;SDS011;60843;52.062;4.508;2022-08-19T11:33:37;2.97;;;1.50;;
72728;SDS011;60843;52.062;4.508;2022-08-19T11:36:03;7.20;;;1.60;;
72728;SDS011;60843;52.062;4.508;2022-08-19T11:38:29;2.28;;;1.33;;
72728;SDS011;60843;52.062;4.508;2022-08-19T11:40:59;3.85;;;1.30;;
72728;SDS011;60843;52.062;4.508;2022-08-19T11:43:26;3.80;;;1.70;;
72728;SDS011;60843;52.062;4.508;2022-08-19T11:45:52;4.93;;;1.35;;
72728;SDS011;60843;52.062;4.508;2022-08-19T11:48:19;2.95;;;1.38;;
72728;SDS011;60843;52.062;4.508;2022-08-19T11:50:48;4.88;;;1.58;;
72728;SDS011;60843;52.062;4.508;2022-08-19T11:53:15;5.57;;;1.35;;
72728;SDS011;60843;52.062;4.508;2022-08-19T11:55:41;2.83;;;1.45;;
72728;SDS011;60843;52.062;4.508;2022-08-19T11:58:07;6.30;;;1.50;;
72728;SDS011;60843;52.062;4.508;2022-08-19T12:00:34;4.88;;;1.65;;
72728;SDS011;60843;52.062;4.508;2022-08-19T12:03:01;5.72;;;1.92;;
72728;SDS011;60843;52.062;4.508;2022-08-19T12:05:27;4.50;;;1.98;;
72728;SDS011;60843;52.062;4.508;2022-08-19T12:07:53;5.05;;;2.10;;
72728;SDS011;60843;52.062;4.508;2022-08-19T12:10:19;5.80;;;2.47;;
72728;SDS011;60843;52.062;4.508;2022-08-19T12:12:46;2.90;;;1.75;;
72728;SDS011;60843;52.062;4.508;2022-08-19T12:15:12;3.85;;;2.08;;
72728;SDS011;60843;52.062;4.508;2022-08-19T12:17:39;3.55;;;1.70;;
72728;SDS011;60843;52.062;4.508;2022-08-19T12:20:07;5.53;;;2.08;;
72728;SDS011;60843;52.062;4.508;2022-08-19T12:22:34;4.22;;;2.03;;
72728;SDS011;60843;52.062;4.508;2022-08-19T12:25:00;4.85;;;1.95;;
72728;SDS011;60843;52.062;4.508;2022-08-19T12:27:26;6.80;;;2.78;;
72728;SDS011;60843;52.062;4.508;2022-08-19T12:29:55;3.83;;;1.95;;
72728;SDS011;60843;52.062;4.508;2022-08-19T12:32:21;4.47;;;2.58;;
72728;SDS011;60843;52.062;4.508;2022-08-19T12:34:48;4.47;;;2.20;;
72728;SDS011;60843;52.062;4.508;2022-08-19T12:37:13;5.13;;;2.42;;
72728;SDS011;60843;52.062;4.508;2022-08-19T12:39:40;5.18;;;2.40;;
72728;SDS011;60843;52.062;4.508;2022-08-19T12:42:10;5.88;;;2.10;;
72728;SDS011;60843;52.062;4.508;2022-08-19T12:44:37;6.00;;;2.35;;
72728;SDS011;60843;52.062;4.508;2022-08-19T12:47:04;4.65;;;2.10;;
72728;SDS011;60843;52.062;4.508;2022-08-19T12:49:31;5.75;;;2.17;;
72728;SDS011;60843;52.062;4.508;2022-08-19T12:52:02;4.53;;;2.10;;
72728;SDS011;60843;52.062;4.508;2022-08-19T12:59:21;5.95;;;2.20;;
72728;SDS011;60843;52.062;4.508;2022-08-19T13:01:46;5.07;;;2.22;;
72728;SDS011;60843;52.062;4.508;2022-08-19T13:04:12;6.10;;;2.30;;
72728;SDS011;60843;52.062;4.508;2022-08-19T13:06:38;3.92;;;2.25;;
72728;SDS011;60843;52.062;4.508;2022-08-19T13:09:04;4.93;;;1.92;;
72728;SDS011;60843;52.062;4.508;2022-08-19T13:11:31;7.93;;;2.25;;
72728;SDS011;60843;52.062;4.508;2022-08-19T13:13:59;3.13;;;1.83;;
72728;SDS011;60843;52.062;4.508;2022-08-19T13:16:24;3.88;;;1.80;;
72728;SDS011;60843;52.062;4.508;2022-08-19T13:18:52;4.80;;;1.95;;
72728;SDS011;60843;52.062;4.508;2022-08-19T13:21:19;4.80;;;1.65;;
72728;SDS011;60843;52.062;4.508;2022-08-19T13:23:47;3.42;;;1.85;;
72728;SDS011;60843;52.062;4.508;2022-08-19T13:26:13;3.05;;;2.05;;
72728;SDS011;60843;52.062;4.508;2022-08-19T13:28:39;3.50;;;1.70;;
72728;SDS011;60843;52.062;4.508;2022-08-19T13:31:26;1.50;;;1.05;;
72728;SDS011;60843;52.062;4.508;2022-08-19T13:34:12;1.65;;;1.15;;
72728;SDS011;60843;52.062;4.508;2022-08-19T13:36:38;1.40;;;0.88;;
72728;SDS011;60843;52.062;4.508;2022-08-19T13:39:05;1.80;;;1.20;;
72728;SDS011;60843;52.062;4.508;2022-08-19T13:41:32;3.33;;;1.67;;
72728;SDS011;60843;52.062;4.508;2022-08-19T13:43:58;7.35;;;1.85;;
72728;SDS011;60843;52.062;4.508;2022-08-19T13:46:24;1.95;;;1.42;;
72728;SDS011;60843;52.062;4.508;2022-08-19T13:48:49;4.32;;;1.60;;
72728;SDS011;60843;52.062;4.508;2022-08-19T13:51:16;3.38;;;1.42;;
72728;SDS011;60843;52.062;4.508;2022-08-19T13:53:42;3.58;;;1.30;;
72728;SDS011;60843;52.062;4.508;2022-08-19T13:56:10;3.78;;;1.58;;
72728;SDS011;60843;52.062;4.508;2022-08-19T14:01:03;2.25;;;1.45;;
72728;SDS011;60843;52.062;4.508;2022-08-19T14:03:29;5.20;;;1.73;;
72728;SDS011;60843;52.062;4.508;2022-08-19T14:05:55;2.97;;;1.52;;
72728;SDS011;60843;52.062;4.508;2022-08-19T14:08:21;5.72;;;1.73;;
72728;SDS011;60843;52.062;4.508;2022-08-19T14:10:46;4.17;;;1.60;;
72728;SDS011;60843;52.062;4.508;2022-08-19T14:13:14;2.65;;;1.63;;
72728;SDS011;60843;52.062;4.508;2022-08-19T14:15:42;3.10;;;1.40;;
72728;SDS011;60843;52.062;4.508;2022-08-19T14:18:08;2.75;;;1.40;;
72728;SDS011;60843;52.062;4.508;2022-08-19T14:20:34;3.42;;;1.38;;
72728;SDS011;60843;52.062;4.508;2022-08-19T14:23:00;3.45;;;1.50;;
72728;SDS011;60843;52.062;4.508;2022-08-19T14:25:27;2.55;;;1.30;;
72728;SDS011;60843;52.062;4.508;2022-08-19T14:32:47;3.05;;;1.40;;
72728;SDS011;60843;52.062;4.508;2022-08-19T14:35:13;3.75;;;1.50;;
72728;SDS011;60843;52.062;4.508;2022-08-19T14:37:40;4.35;;;1.75;;
72728;SDS011;60843;52.062;4.508;2022-08-19T14:40:07;3.13;;;1.40;;
72728;SDS011;60843;52.062;4.508;2022-08-19T14:42:33;3.10;;;1.63;;
72728;SDS011;60843;52.062;4.508;2022-08-19T14:44:59;3.80;;;1.80;;
72728;SDS011;60843;52.062;4.508;2022-08-19T14:47:25;3.20;;;1.50;;
72728;SDS011;60843;52.062;4.508;2022-08-19T14:49:51;3.45;;;1.63;;
72728;SDS011;60843;52.062;4.508;2022-08-19T14:52:17;4.10;;;1.17;;
72728;SDS011;60843;52.062;4.508;2022-08-19T14:54:42;3.20;;;1.40;;
72728;SDS011;60843;52.062;4.508;2022-08-19T14:57:11;3.70;;;1.52;;
72728;SDS011;60843;52.062;4.508;2022-08-19T14:59:37;4.30;;;1.67;;
72728;SDS011;60843;52.062;4.508;2022-08-19T15:02:03;2.63;;;1.40;;
72728;SDS011;60843;52.062;4.508;2022-08-19T15:04:29;5.35;;;1.52;;
72728;SDS011;60843;52.062;4.508;2022-08-19T15:06:54;3.17;;;1.55;;
72728;SDS011;60843;52.062;4.508;2022-08-19T15:09:20;4.55;;;1.50;;
72728;SDS011;60843;52.062;4.508;2022-08-19T15:11:46;2.45;;;1.30;;
72728;SDS011;60843;52.062;4.508;2022-08-19T15:14:14;3.53;;;1.55;;
72728;SDS011;60843;52.062;4.508;2022-08-19T15:16:41;3.15;;;1.60;;
72728;SDS011;60843;52.062;4.508;2022-08-19T15:19:07;3.47;;;1.50;;
72728;SDS011;60843;52.062;4.508;2022-08-19T15:21:34;6.95;;;1.83;;